createdAt,value
2022-08-22T00:00:11.353Z,43.54
2022-08-22T00:01:11.324Z,43.63
2022-08-22T00:02:11.395Z,44.46
2022-08-22T00:02:49.198Z,43.77
2022-08-22T00:02:54.355Z,43.53
2022-08-22T00:02:59.391Z,43.94
2022-08-22T00:03:00.889Z,42.38
2022-08-22T00:03:02.260Z,40.06
2022-08-22T00:03:04.653Z,42.55
2022-08-22T00:03:12.194Z,42.86
2022-08-22T00:03:18.784Z,44.96
2022-08-22T00:04:13.306Z,44.81
2022-08-22T00:05:11.288Z,45.55
2022-08-22T00:06:11.272Z,44.47
2022-08-22T00:07:11.325Z,44.26
2022-08-22T00:08:11.281Z,44.60
2022-08-22T00:09:11.328Z,44.41
2022-08-22T00:10:11.252Z,45.03
2022-08-22T00:11:12.283Z,45.48
2022-08-22T00:12:11.267Z,45.24
2022-08-22T00:13:11.255Z,44.54
2022-08-22T00:14:11.247Z,43.71
2022-08-22T00:15:16.804Z,44.03
2022-08-22T00:16:12.229Z,44.18
2022-08-22T00:17:11.215Z,43.79
2022-08-22T00:18:11.244Z,43.75
2022-08-22T00:19:11.225Z,43.83
2022-08-22T00:20:11.213Z,43.88
2022-08-22T00:21:11.204Z,44.04
2022-08-22T00:22:11.175Z,44.09
2022-08-22T00:23:11.181Z,44.16
2022-08-22T00:24:11.220Z,44.25
2022-08-22T00:25:24.670Z,45.08
2022-08-22T00:26:12.146Z,46.66
2022-08-22T00:27:11.166Z,45.97
2022-08-22T00:28:11.152Z,46.56
2022-08-22T00:29:11.159Z,44.83
2022-08-22T00:30:11.143Z,44.57
2022-08-22T00:31:11.117Z,44.50
2022-08-22T00:32:11.149Z,44.73
2022-08-22T00:33:11.116Z,44.68
2022-08-22T00:34:11.185Z,46.32
2022-08-22T00:35:11.098Z,45.74
2022-08-22T00:36:11.098Z,45.34
2022-08-22T00:37:11.072Z,45.39
2022-08-22T00:38:11.068Z,44.99
2022-08-22T00:39:11.078Z,46.26
2022-08-22T00:40:11.146Z,45.19
2022-08-22T00:41:11.062Z,44.88
2022-08-22T00:42:11.062Z,44.92
2022-08-22T00:43:11.050Z,44.95
2022-08-22T00:44:11.010Z,45.92
2022-08-22T00:45:11.053Z,46.04
2022-08-22T00:46:11.057Z,47.47
2022-08-22T00:47:11.006Z,45.70
2022-08-22T00:48:11.012Z,45.24
2022-08-22T00:49:10.981Z,45.29
2022-08-22T00:50:11.015Z,45.43
2022-08-22T00:51:11.032Z,45.76
2022-08-22T00:52:10.996Z,45.41
2022-08-22T00:53:10.979Z,45.84
2022-08-22T00:54:16.780Z,45.58
2022-08-22T00:55:11.946Z,45.61
2022-08-22T00:56:10.968Z,46.39
2022-08-22T00:57:11.012Z,45.65
2022-08-22T00:58:11.009Z,45.90
2022-08-22T00:59:22.913Z,49.78
2022-08-22T01:00:11.977Z,45.57
2022-08-22T01:01:10.961Z,45.62
2022-08-22T01:02:10.900Z,45.58
2022-08-22T01:03:10.965Z,45.56
2022-08-22T01:04:10.899Z,45.89
2022-08-22T01:05:10.939Z,47.60
2022-08-22T01:06:10.882Z,47.40
2022-08-22T01:07:10.905Z,46.20
2022-08-22T01:08:10.952Z,45.48
2022-08-22T01:09:10.902Z,47.39
2022-08-22T01:10:10.881Z,45.47
2022-08-22T01:11:10.855Z,45.80
2022-08-22T01:12:10.845Z,46.28
2022-08-22T01:13:10.821Z,46.11
2022-08-22T01:14:10.855Z,47.57
2022-08-22T01:15:10.815Z,47.17
2022-08-22T01:16:10.810Z,47.11
2022-08-22T01:17:10.808Z,46.15
2022-08-22T01:18:10.809Z,46.57
2022-08-22T01:19:10.814Z,46.58
2022-08-22T01:20:10.783Z,45.97
2022-08-22T01:21:10.779Z,45.74
2022-08-22T01:22:10.822Z,45.92
2022-08-22T01:23:10.760Z,45.76
2022-08-22T01:24:10.822Z,45.73
2022-08-22T01:25:10.748Z,46.26
2022-08-22T01:26:10.779Z,46.92
2022-08-22T01:27:10.744Z,47.15
2022-08-22T01:28:10.769Z,46.52
2022-08-22T01:29:10.753Z,45.97
2022-08-22T01:30:10.804Z,45.96
2022-08-22T01:31:10.728Z,45.77
2022-08-22T01:32:10.689Z,48.56
2022-08-22T01:33:10.696Z,45.40
2022-08-22T01:34:12.865Z,45.15
2022-08-22T01:35:10.705Z,45.04
2022-08-22T01:36:10.699Z,45.27
2022-08-22T01:37:10.635Z,46.56
2022-08-22T01:38:10.657Z,45.00
2022-08-22T01:39:10.666Z,45.28
2022-08-22T01:40:10.751Z,45.69
2022-08-22T01:41:12.059Z,45.88
2022-08-22T01:42:10.693Z,44.87
2022-08-22T01:43:10.613Z,46.27
2022-08-22T01:44:10.632Z,47.77
2022-08-22T01:45:10.627Z,45.19
2022-08-22T01:46:10.587Z,45.81
2022-08-22T01:47:10.644Z,45.74
2022-08-22T01:48:10.569Z,45.65
2022-08-22T01:49:10.600Z,46.63
2022-08-22T01:50:10.566Z,47.77
2022-08-22T01:51:10.558Z,48.51
2022-08-22T01:52:10.634Z,47.52
2022-08-22T01:53:10.552Z,47.05
2022-08-22T01:54:10.569Z,46.28
2022-08-22T01:55:10.558Z,46.23
2022-08-22T01:56:10.597Z,47.37
2022-08-22T01:57:10.548Z,46.02
2022-08-22T01:58:10.532Z,46.53
2022-08-22T01:59:11.353Z,47.50
2022-08-22T02:00:10.497Z,47.33
2022-08-22T02:01:10.563Z,45.91
2022-08-22T02:02:10.535Z,45.74
2022-08-22T02:03:10.503Z,45.65
2022-08-22T02:04:10.461Z,45.95
2022-08-22T02:05:10.535Z,47.85
2022-08-22T02:06:10.463Z,48.07
2022-08-22T02:07:10.524Z,46.11
2022-08-22T02:08:10.495Z,49.07
2022-08-22T02:09:10.435Z,46.94
2022-08-22T02:10:10.475Z,46.19
2022-08-22T02:11:10.409Z,46.06
2022-08-22T02:12:21.376Z,45.30
2022-08-22T02:13:11.461Z,45.85
2022-08-22T02:14:10.399Z,45.65
2022-08-22T02:15:10.417Z,45.28
2022-08-22T02:16:10.431Z,45.28
2022-08-22T02:17:10.410Z,46.11
2022-08-22T02:18:10.411Z,45.74
2022-08-22T02:19:10.438Z,46.62
2022-08-22T02:20:10.394Z,46.29
2022-08-22T02:21:10.360Z,45.36
2022-08-22T02:22:10.372Z,45.97
2022-08-22T02:23:10.355Z,49.35
2022-08-22T02:24:10.346Z,58.84
2022-08-22T02:25:10.422Z,58.05
2022-08-22T02:26:10.354Z,57.35
2022-08-22T02:27:10.363Z,57.14
2022-08-22T02:28:10.299Z,57.12
2022-08-22T02:29:10.386Z,57.61
2022-08-22T02:30:10.333Z,52.05
2022-08-22T02:31:10.336Z,47.38
2022-08-22T02:32:11.282Z,47.29
2022-08-22T02:33:10.293Z,46.76
2022-08-22T02:34:10.262Z,45.96
2022-08-22T02:35:10.278Z,46.15
2022-08-22T02:36:10.295Z,45.64
2022-08-22T02:37:10.278Z,46.30
2022-08-22T02:38:10.240Z,46.36
2022-08-22T02:39:10.276Z,47.48
2022-08-22T02:40:11.343Z,45.95
2022-08-22T02:41:10.265Z,46.24
2022-08-22T02:42:10.332Z,48.42
2022-08-22T02:43:10.245Z,46.85
2022-08-22T02:44:10.190Z,46.49
2022-08-22T02:45:10.280Z,47.06
2022-08-22T02:46:10.189Z,46.81
2022-08-22T02:47:10.185Z,47.26
2022-08-22T02:48:10.241Z,48.76
2022-08-22T02:49:10.208Z,46.37
2022-08-22T02:50:13.075Z,45.78
2022-08-22T02:51:10.204Z,46.85
2022-08-22T02:52:10.293Z,46.30
2022-08-22T02:53:10.154Z,47.74
2022-08-22T02:54:10.124Z,46.36
2022-08-22T02:55:10.197Z,45.97
2022-08-22T02:56:10.107Z,47.55
2022-08-22T02:57:14.154Z,46.50
2022-08-22T02:58:10.133Z,48.79
2022-08-22T02:59:10.091Z,51.15
2022-08-22T03:00:30.778Z,47.70
2022-08-22T03:01:11.103Z,48.04
2022-08-22T03:02:10.050Z,47.24
2022-08-22T03:03:10.103Z,48.63
2022-08-22T03:04:10.091Z,48.46
2022-08-22T03:05:10.070Z,50.04
2022-08-22T03:06:10.025Z,46.79
2022-08-22T03:07:10.051Z,48.97
2022-08-22T03:08:10.051Z,48.35
2022-08-22T03:09:10.047Z,46.28
2022-08-22T03:10:10.011Z,50.33
2022-08-22T03:11:10.043Z,51.56
2022-08-22T03:12:10.042Z,51.44
2022-08-22T03:13:09.998Z,51.89
2022-08-22T03:14:10.009Z,53.79
2022-08-22T03:15:09.990Z,53.29
2022-08-22T03:16:09.990Z,49.32
2022-08-22T03:17:09.978Z,49.54
2022-08-22T03:18:09.961Z,46.18
2022-08-22T03:19:16.181Z,49.61
2022-08-22T03:20:10.980Z,48.71
2022-08-22T03:21:09.950Z,48.14
2022-08-22T03:22:09.919Z,51.90
2022-08-22T03:23:10.937Z,46.68
2022-08-22T03:24:09.904Z,51.27
2022-08-22T03:25:09.946Z,48.83
2022-08-22T03:26:09.889Z,48.06
2022-08-22T03:27:09.911Z,48.95
2022-08-22T03:28:09.881Z,50.36
2022-08-22T03:29:09.889Z,50.74
2022-08-22T03:30:09.965Z,49.26
2022-08-22T03:31:09.877Z,51.68
2022-08-22T03:32:09.879Z,50.75
2022-08-22T03:33:09.861Z,49.23
2022-08-22T03:34:09.824Z,51.50
2022-08-22T03:35:09.815Z,47.76
2022-08-22T03:36:10.857Z,50.11
2022-08-22T03:37:09.823Z,50.54
2022-08-22T03:38:09.855Z,53.54
2022-08-22T03:39:16.673Z,53.33
2022-08-22T03:40:10.857Z,49.63
2022-08-22T03:41:09.777Z,51.95
2022-08-22T03:42:09.801Z,51.75
2022-08-22T03:43:09.776Z,52.25
2022-08-22T03:44:09.793Z,49.35
2022-08-22T03:45:09.751Z,51.96
2022-08-22T03:46:09.771Z,51.20
2022-08-22T03:47:09.831Z,51.24
2022-08-22T03:48:09.732Z,52.33
2022-08-22T03:49:09.741Z,53.25
2022-08-22T03:50:09.726Z,50.56
2022-08-22T03:51:09.713Z,50.03
2022-08-22T03:52:09.744Z,50.74
2022-08-22T03:53:10.323Z,48.54
2022-08-22T03:54:10.716Z,51.43
2022-08-22T03:55:09.683Z,50.67
2022-08-22T03:56:09.654Z,51.61
2022-08-22T03:57:09.677Z,51.01
2022-08-22T03:58:12.016Z,51.04
2022-08-22T03:59:10.711Z,51.32
2022-08-22T04:00:09.647Z,50.28
2022-08-22T04:01:09.729Z,53.03
2022-08-22T04:02:43.619Z,55.11
2022-08-22T04:03:10.600Z,56.50
2022-08-22T04:04:09.611Z,53.40
2022-08-22T04:05:09.641Z,53.72
2022-08-22T04:06:12.794Z,50.37
2022-08-22T04:07:28.557Z,49.96
2022-08-22T04:08:11.250Z,51.79
2022-08-22T04:09:09.581Z,53.64
2022-08-22T04:10:09.625Z,52.87
2022-08-22T04:11:09.557Z,53.31
2022-08-22T04:12:09.623Z,51.55
2022-08-22T04:13:09.539Z,52.11
2022-08-22T04:14:09.569Z,53.28
2022-08-22T04:15:09.533Z,50.08
2022-08-22T04:16:09.589Z,52.59
2022-08-22T04:17:09.507Z,53.63
2022-08-22T04:18:09.520Z,50.46
2022-08-22T04:19:09.508Z,51.35
2022-08-22T04:20:09.551Z,50.94
2022-08-22T04:21:09.498Z,53.30
2022-08-22T04:22:09.481Z,54.83
2022-08-22T04:23:09.489Z,54.07
2022-08-22T04:24:09.459Z,52.43
2022-08-22T04:25:09.511Z,52.61
2022-08-22T04:26:12.245Z,53.76
2022-08-22T04:27:09.478Z,54.77
2022-08-22T04:28:09.503Z,55.35
2022-08-22T04:29:09.456Z,54.29
2022-08-22T04:30:09.422Z,53.67
2022-08-22T04:31:09.529Z,53.54
2022-08-22T04:32:14.003Z,52.73
2022-08-22T04:33:11.470Z,54.90
2022-08-22T04:34:09.445Z,54.52
2022-08-22T04:35:09.393Z,54.76
2022-08-22T04:36:09.377Z,55.09
2022-08-22T04:37:09.377Z,55.64
2022-08-22T04:38:09.350Z,53.56
2022-08-22T04:39:09.400Z,53.47
2022-08-22T04:40:09.389Z,54.31
2022-08-22T04:41:09.346Z,55.81
2022-08-22T04:42:31.082Z,52.15
2022-08-22T04:43:11.311Z,54.39
2022-08-22T04:44:09.366Z,54.87
2022-08-22T04:45:09.288Z,53.90
2022-08-22T04:46:09.286Z,53.64
2022-08-22T04:47:09.272Z,51.77
2022-08-22T04:48:09.292Z,51.94
2022-08-22T04:49:09.312Z,52.22
2022-08-22T04:50:09.296Z,50.70
2022-08-22T04:51:09.244Z,52.54
2022-08-22T04:52:09.253Z,52.07
2022-08-22T04:53:09.209Z,50.69
2022-08-22T04:54:10.212Z,51.03
2022-08-22T04:55:09.230Z,49.15
2022-08-22T04:56:10.256Z,51.11
2022-08-22T04:57:09.221Z,50.38
2022-08-22T04:58:09.195Z,52.51
2022-08-22T04:59:09.210Z,50.51
2022-08-22T05:00:09.162Z,51.32
2022-08-22T05:01:09.198Z,49.69
2022-08-22T05:02:09.284Z,54.30
2022-08-22T05:03:09.211Z,53.98
2022-08-22T05:04:09.189Z,53.95
2022-08-22T05:05:13.581Z,47.42
2022-08-22T05:06:09.170Z,49.23
2022-08-22T05:07:09.100Z,53.70
2022-08-22T05:08:09.183Z,49.81
2022-08-22T05:09:11.892Z,48.68
2022-08-22T05:10:12.162Z,49.26
2022-08-22T05:11:09.101Z,51.15
2022-08-22T05:12:09.149Z,50.21
2022-08-22T05:13:09.136Z,50.13
2022-08-22T05:14:09.075Z,49.69
2022-08-22T05:15:09.814Z,49.26
2022-08-22T05:16:09.077Z,50.56
2022-08-22T05:17:09.146Z,49.85
2022-08-22T05:18:09.082Z,48.65
2022-08-22T05:19:12.017Z,49.00
2022-08-22T05:20:10.107Z,48.27
2022-08-22T05:21:09.038Z,48.97
2022-08-22T05:22:09.083Z,50.95
2022-08-22T05:23:17.375Z,49.34
2022-08-22T05:24:10.026Z,47.28
2022-08-22T05:25:09.065Z,45.93
2022-08-22T05:26:09.106Z,49.23
2022-08-22T05:27:08.994Z,47.43
2022-08-22T05:28:08.993Z,49.42
2022-08-22T05:29:09.026Z,48.52
2022-08-22T05:30:09.012Z,47.78
2022-08-22T05:31:08.972Z,48.66
2022-08-22T05:32:08.960Z,50.96
2022-08-22T05:33:08.967Z,48.56
2022-08-22T05:34:09.025Z,46.58
2022-08-22T05:35:08.986Z,44.84
2022-08-22T05:36:09.334Z,48.22
2022-08-22T05:37:08.956Z,49.09
2022-08-22T05:38:08.956Z,46.88
2022-08-22T05:39:08.907Z,47.91
2022-08-22T05:40:10.023Z,49.88
2022-08-22T05:41:08.978Z,46.42
2022-08-22T05:42:08.915Z,43.73
2022-08-22T05:43:08.877Z,47.98
2022-08-22T05:44:08.895Z,47.86
2022-08-22T05:45:12.110Z,48.18
2022-08-22T05:46:08.934Z,48.85
2022-08-22T05:47:08.879Z,47.24
2022-08-22T05:48:08.861Z,46.21
2022-08-22T05:49:08.920Z,48.82
2022-08-22T05:50:08.888Z,48.12
2022-08-22T05:51:08.927Z,52.25
2022-08-22T05:52:08.837Z,47.07
2022-08-22T05:53:08.854Z,46.96
2022-08-22T05:54:08.833Z,46.91
2022-08-22T05:55:08.812Z,47.40
2022-08-22T05:56:08.875Z,48.79
2022-08-22T05:57:08.832Z,46.90
2022-08-22T05:58:08.784Z,51.78
2022-08-22T05:59:08.814Z,51.66
2022-08-22T06:00:08.806Z,51.04
2022-08-22T06:01:08.830Z,47.66
2022-08-22T06:02:08.849Z,48.47
2022-08-22T06:03:08.803Z,48.03
2022-08-22T06:04:08.755Z,47.14
2022-08-22T06:05:12.057Z,46.23
2022-08-22T06:06:09.822Z,45.43
2022-08-22T06:07:08.804Z,49.41
2022-08-22T06:08:08.745Z,48.76
2022-08-22T06:09:08.742Z,49.60
2022-08-22T06:10:08.745Z,47.15
2022-08-22T06:11:08.738Z,50.51
2022-08-22T06:12:08.778Z,48.27
2022-08-22T06:13:11.523Z,50.47
2022-08-22T06:14:08.707Z,50.84
2022-08-22T06:15:12.006Z,46.69
2022-08-22T06:16:09.368Z,48.54
2022-08-22T06:17:08.715Z,50.01
2022-08-22T06:18:08.713Z,49.03
2022-08-22T06:19:19.479Z,48.78
2022-08-22T06:20:09.666Z,48.36
2022-08-22T06:21:08.668Z,51.00
2022-08-22T06:22:08.666Z,45.17
2022-08-22T06:23:08.673Z,50.72
2022-08-22T06:24:08.766Z,48.25
2022-08-22T06:25:08.727Z,51.29
2022-08-22T06:26:21.014Z,49.41
2022-08-22T06:27:09.668Z,46.87
2022-08-22T06:28:08.724Z,48.17
2022-08-22T06:29:08.660Z,51.83
2022-08-22T06:30:08.762Z,50.24
2022-08-22T06:31:08.629Z,50.13
2022-08-22T06:32:08.616Z,52.91
2022-08-22T06:33:08.779Z,50.97
2022-08-22T06:34:08.641Z,46.68
2022-08-22T06:35:08.595Z,52.01
2022-08-22T06:36:08.585Z,47.07
2022-08-22T06:37:08.642Z,50.74
2022-08-22T06:38:08.598Z,50.76
2022-08-22T06:39:08.602Z,49.03
2022-08-22T06:40:08.630Z,49.47
2022-08-22T06:41:08.638Z,47.22
2022-08-22T06:42:10.337Z,49.43
2022-08-22T06:43:08.532Z,49.09
2022-08-22T06:44:08.556Z,51.79
2022-08-22T06:45:08.612Z,49.49
2022-08-22T06:46:08.588Z,46.41
2022-08-22T06:47:08.531Z,48.18
2022-08-22T06:48:08.541Z,48.20
2022-08-22T06:49:08.478Z,47.64
2022-08-22T06:50:13.750Z,47.67
2022-08-22T06:51:09.567Z,44.57
2022-08-22T06:52:08.480Z,48.33
2022-08-22T06:53:08.488Z,48.64
2022-08-22T06:54:08.461Z,48.25
2022-08-22T06:55:08.490Z,48.13
2022-08-22T06:56:08.728Z,47.58
2022-08-22T06:57:08.479Z,44.88
2022-08-22T06:58:08.503Z,48.82
2022-08-22T06:59:08.430Z,48.52
2022-08-22T07:00:08.429Z,45.17
2022-08-22T07:01:12.433Z,50.07
2022-08-22T07:02:08.493Z,47.87
2022-08-22T07:03:08.442Z,49.71
2022-08-22T07:04:08.417Z,50.44
2022-08-22T07:05:08.385Z,53.11
2022-08-22T07:06:08.386Z,50.83
2022-08-22T07:07:08.423Z,48.67
2022-08-22T07:08:08.384Z,48.41
2022-08-22T07:09:08.375Z,47.04
2022-08-22T07:10:08.381Z,45.75
2022-08-22T07:11:08.365Z,47.30
2022-08-22T07:12:08.388Z,42.91
2022-08-22T07:13:08.395Z,45.94
2022-08-22T07:14:08.335Z,45.68
2022-08-22T07:15:08.333Z,48.63
2022-08-22T07:16:08.411Z,47.21
2022-08-22T07:17:08.481Z,46.93
2022-08-22T07:18:08.354Z,45.99
2022-08-22T07:19:08.296Z,45.90
2022-08-22T07:20:08.291Z,47.05
2022-08-22T07:21:08.327Z,48.12
2022-08-22T07:22:08.300Z,50.16
2022-08-22T07:23:08.257Z,44.30
2022-08-22T07:24:08.265Z,43.85
2022-08-22T07:25:08.306Z,50.94
2022-08-22T07:26:08.284Z,48.21
2022-08-22T07:27:08.286Z,46.00
2022-08-22T07:28:08.282Z,45.73
2022-08-22T07:29:11.565Z,48.25
2022-08-22T07:30:10.204Z,47.30
2022-08-22T07:31:08.239Z,49.52
2022-08-22T07:32:08.237Z,50.28
2022-08-22T07:33:25.694Z,47.23
2022-08-22T07:34:09.244Z,48.89
2022-08-22T07:35:08.278Z,49.24
2022-08-22T07:36:08.248Z,46.61
2022-08-22T07:37:08.194Z,42.38
2022-08-22T07:38:08.191Z,49.43
2022-08-22T07:39:08.167Z,48.34
2022-08-22T07:40:08.223Z,46.59
2022-08-22T07:41:08.214Z,49.07
2022-08-22T07:42:08.205Z,48.48
2022-08-22T07:43:08.132Z,44.24
2022-08-22T07:44:08.135Z,48.48
2022-08-22T07:45:08.124Z,50.08
2022-08-22T07:46:08.111Z,48.62
2022-08-22T07:47:08.158Z,46.95
2022-08-22T07:48:08.171Z,49.62
2022-08-22T07:49:09.758Z,45.98
2022-08-22T07:50:09.108Z,48.17
2022-08-22T07:51:08.132Z,48.02
2022-08-22T07:52:08.162Z,47.25
2022-08-22T07:53:08.110Z,47.38
2022-08-22T07:54:08.074Z,47.39
2022-08-22T07:55:08.113Z,47.69
2022-08-22T07:56:08.071Z,49.97
2022-08-22T07:57:08.054Z,48.66
2022-08-22T07:58:08.181Z,46.42
2022-08-22T07:59:12.793Z,47.57
2022-08-22T08:00:10.050Z,48.92
2022-08-22T08:01:08.062Z,49.03
2022-08-22T08:02:08.048Z,48.09
2022-08-22T08:03:08.027Z,46.94
2022-08-22T08:04:08.086Z,45.19
2022-08-22T08:05:07.999Z,50.28
2022-08-22T08:06:08.026Z,49.01
2022-08-22T08:07:07.984Z,50.51
2022-08-22T08:08:08.114Z,48.18
2022-08-22T08:09:07.959Z,45.94
2022-08-22T08:10:11.237Z,45.39
2022-08-22T08:11:09.941Z,45.75
2022-08-22T08:12:07.942Z,44.91
2022-08-22T08:13:08.012Z,45.55
2022-08-22T08:14:07.973Z,45.43
2022-08-22T08:15:08.957Z,49.10
2022-08-22T08:16:07.923Z,48.34
2022-08-22T08:17:07.919Z,46.00
2022-08-22T08:18:07.929Z,47.05
2022-08-22T08:19:07.939Z,43.98
2022-08-22T08:20:07.948Z,45.39
2022-08-22T08:21:07.887Z,47.93
2022-08-22T08:22:07.926Z,48.63
2022-08-22T08:23:07.884Z,50.60
2022-08-22T08:24:07.930Z,47.70
2022-08-22T08:25:07.994Z,47.16
2022-08-22T08:26:07.877Z,45.82
2022-08-22T08:27:07.862Z,47.33
2022-08-22T08:28:07.851Z,48.98
2022-08-22T08:29:07.895Z,49.74
2022-08-22T08:30:11.069Z,47.63
2022-08-22T08:31:08.879Z,44.79
2022-08-22T08:32:07.819Z,47.27
2022-08-22T08:33:24.889Z,43.87
2022-08-22T08:34:08.792Z,49.18
2022-08-22T08:35:07.802Z,48.16
2022-08-22T08:36:07.821Z,48.39
2022-08-22T08:37:07.810Z,47.01
2022-08-22T08:38:07.779Z,47.42
2022-08-22T08:39:07.780Z,43.10
2022-08-22T08:40:07.839Z,45.41
2022-08-22T08:41:07.821Z,47.39
2022-08-22T08:42:07.732Z,48.23
2022-08-22T08:43:10.646Z,47.89
2022-08-22T08:44:07.725Z,46.98
2022-08-22T08:45:07.758Z,46.13
2022-08-22T08:46:07.774Z,49.81
2022-08-22T08:47:07.754Z,48.05
2022-08-22T08:48:07.733Z,49.70
2022-08-22T08:49:07.777Z,49.06
2022-08-22T08:50:07.724Z,47.86
2022-08-22T08:51:07.669Z,47.19
2022-08-22T08:52:07.650Z,46.83
2022-08-22T08:53:07.869Z,44.68
2022-08-22T08:54:07.660Z,49.59
2022-08-22T08:55:19.855Z,52.24
2022-08-22T08:56:08.696Z,51.71
2022-08-22T08:57:07.687Z,48.25
2022-08-22T08:58:07.663Z,47.24
2022-08-22T08:59:10.019Z,46.29
2022-08-22T09:00:07.632Z,46.58
2022-08-22T09:01:07.689Z,46.66
2022-08-22T09:02:07.633Z,51.65
2022-08-22T09:03:07.628Z,52.86
2022-08-22T09:04:15.329Z,51.89
2022-08-22T09:05:08.579Z,47.49
2022-08-22T09:06:07.597Z,48.38
2022-08-22T09:07:07.579Z,48.42
2022-08-22T09:08:07.601Z,47.10
2022-08-22T09:09:07.592Z,46.89
2022-08-22T09:10:07.600Z,49.59
2022-08-22T09:11:09.783Z,49.11
2022-08-22T09:12:07.596Z,47.72
2022-08-22T09:13:12.454Z,44.13
2022-08-22T09:14:08.534Z,47.67
2022-08-22T09:15:11.929Z,47.28
2022-08-22T09:16:09.957Z,48.47
2022-08-22T09:17:07.492Z,45.36
2022-08-22T09:18:07.629Z,45.83
2022-08-22T09:19:07.545Z,47.81
2022-08-22T09:20:17.548Z,44.86
2022-08-22T09:21:08.595Z,46.19
2022-08-22T09:22:14.557Z,44.76
2022-08-22T09:23:10.200Z,48.51
2022-08-22T09:24:07.503Z,48.70
2022-08-22T09:25:07.471Z,45.13
2022-08-22T09:26:07.540Z,57.81
2022-08-22T09:27:08.593Z,58.70
2022-08-22T09:28:07.532Z,58.58
2022-08-22T09:29:07.467Z,59.19
2022-08-22T09:30:07.512Z,59.09
2022-08-22T09:31:18.715Z,57.95
2022-08-22T09:32:13.076Z,58.17
2022-08-22T09:33:07.410Z,58.57
2022-08-22T09:34:07.402Z,57.69
2022-08-22T09:35:07.441Z,59.13
2022-08-22T09:36:12.284Z,58.66
2022-08-22T09:37:08.374Z,58.85
2022-08-22T09:38:08.400Z,58.41
2022-08-22T09:39:07.394Z,58.64
2022-08-22T09:40:08.200Z,51.18
2022-08-22T09:41:07.379Z,49.80
2022-08-22T09:42:08.150Z,60.25
2022-08-22T09:43:07.390Z,61.27
2022-08-22T09:44:07.375Z,60.41
2022-08-22T09:45:07.442Z,61.09
2022-08-22T09:46:07.419Z,52.32
2022-08-22T09:47:07.410Z,48.40
2022-08-22T09:48:07.783Z,50.58
2022-08-22T09:49:07.354Z,47.17
2022-08-22T09:50:07.497Z,45.20
2022-08-22T09:51:28.532Z,44.99
2022-08-22T09:52:15.218Z,45.15
2022-08-22T09:53:08.345Z,43.48
2022-08-22T09:54:07.295Z,44.40
2022-08-22T09:55:08.118Z,45.56
2022-08-22T09:56:11.746Z,48.04
2022-08-22T09:57:08.303Z,47.31
2022-08-22T09:58:11.512Z,46.10
2022-08-22T09:59:07.274Z,45.56
2022-08-22T10:00:07.267Z,45.58
2022-08-22T10:01:07.347Z,48.61
2022-08-22T10:02:07.340Z,43.14
2022-08-22T10:03:08.260Z,47.33
2022-08-22T10:04:07.244Z,43.92
2022-08-22T10:05:07.265Z,47.72
2022-08-22T10:06:09.209Z,45.67
2022-08-22T10:07:11.597Z,46.42
2022-08-22T10:08:11.302Z,47.53
2022-08-22T10:09:09.040Z,45.77
2022-08-22T10:10:07.202Z,46.50
2022-08-22T10:11:07.202Z,48.26
2022-08-22T10:12:12.278Z,53.17
2022-08-22T10:13:10.499Z,47.71
2022-08-22T10:14:07.207Z,48.82
2022-08-22T10:15:07.229Z,53.57
2022-08-22T10:16:07.180Z,49.38
2022-08-22T10:17:07.332Z,45.04
2022-08-22T10:18:07.164Z,49.84
2022-08-22T10:19:07.172Z,46.60
2022-08-22T10:20:07.182Z,46.62
2022-08-22T10:21:07.167Z,43.94
2022-08-22T10:22:07.120Z,46.62
2022-08-22T10:23:07.124Z,45.74
2022-08-22T10:24:07.358Z,46.71
2022-08-22T10:25:07.139Z,45.50
2022-08-22T10:26:07.169Z,47.94
2022-08-22T10:27:07.164Z,47.63
2022-08-22T10:28:07.112Z,47.63
2022-08-22T10:29:07.146Z,46.20
2022-08-22T10:30:07.110Z,45.77
2022-08-22T10:31:07.122Z,44.74
2022-08-22T10:32:14.568Z,51.29
2022-08-22T10:33:09.054Z,49.58
2022-08-22T10:34:07.065Z,45.98
2022-08-22T10:35:07.088Z,45.78
2022-08-22T10:36:07.041Z,51.37
2022-08-22T10:37:07.093Z,45.94
2022-08-22T10:38:07.069Z,46.28
2022-08-22T10:39:10.990Z,49.05
2022-08-22T10:40:07.142Z,48.18
2022-08-22T10:41:09.341Z,45.77
2022-08-22T10:42:07.053Z,45.23
2022-08-22T10:43:07.003Z,44.79
2022-08-22T10:44:07.096Z,47.01
2022-08-22T10:45:07.015Z,47.97
2022-08-22T10:46:07.008Z,46.80
2022-08-22T10:47:08.027Z,44.10
2022-08-22T10:48:09.040Z,43.10
2022-08-22T10:49:08.230Z,47.28
2022-08-22T10:50:10.794Z,43.97
2022-08-22T10:51:08.817Z,46.33
2022-08-22T10:52:15.364Z,44.44
2022-08-22T10:53:09.033Z,48.60
2022-08-22T10:54:06.998Z,50.91
2022-08-22T10:55:09.689Z,45.95
2022-08-22T10:56:06.947Z,47.20
2022-08-22T10:57:06.945Z,48.13
2022-08-22T10:58:07.041Z,47.38
2022-08-22T10:59:06.945Z,47.89
2022-08-22T11:00:06.901Z,47.81
2022-08-22T11:01:38.224Z,45.67
2022-08-22T11:02:08.167Z,48.09
2022-08-22T11:03:10.693Z,49.40
2022-08-22T11:04:08.918Z,44.40
2022-08-22T11:05:06.875Z,47.60
2022-08-22T11:06:06.882Z,45.97
2022-08-22T11:07:09.289Z,47.35
2022-08-22T11:08:06.852Z,47.37
2022-08-22T11:09:06.869Z,48.67
2022-08-22T11:10:06.895Z,43.46
2022-08-22T11:11:06.847Z,43.73
2022-08-22T11:12:06.828Z,45.06
2022-08-22T11:13:06.807Z,48.93
2022-08-22T11:14:06.841Z,45.15
2022-08-22T11:15:06.840Z,44.47
2022-08-22T11:16:06.787Z,47.08
2022-08-22T11:17:17.803Z,48.78
2022-08-22T11:18:07.782Z,55.40
2022-08-22T11:19:15.172Z,54.49
2022-08-22T11:20:07.818Z,55.36
2022-08-22T11:21:07.186Z,54.92
2022-08-22T11:22:06.748Z,50.92
2022-08-22T11:23:06.819Z,46.93
2022-08-22T11:24:06.755Z,47.52
2022-08-22T11:25:07.731Z,45.75
2022-08-22T11:26:06.787Z,46.23
2022-08-22T11:27:07.315Z,48.99
2022-08-22T11:28:07.741Z,47.57
2022-08-22T11:29:11.309Z,51.05
2022-08-22T11:30:07.699Z,48.69
2022-08-22T11:31:07.498Z,45.46
2022-08-22T11:32:07.991Z,45.80
2022-08-22T11:33:06.734Z,48.11
2022-08-22T11:34:06.680Z,49.14
2022-08-22T11:35:08.875Z,47.90
2022-08-22T11:36:06.684Z,48.46
2022-08-22T11:37:11.055Z,48.23
2022-08-22T11:38:10.975Z,45.06
2022-08-22T11:39:14.644Z,50.88
2022-08-22T11:40:07.818Z,48.17
2022-08-22T11:41:06.652Z,47.17
2022-08-22T11:42:06.663Z,42.66
2022-08-22T11:43:07.145Z,44.84
2022-08-22T11:44:07.614Z,43.96
2022-08-22T11:45:06.607Z,44.30
2022-08-22T11:46:06.617Z,44.84
2022-08-22T11:47:07.083Z,44.14
2022-08-22T11:48:06.605Z,44.25
2022-08-22T11:49:06.635Z,46.54
2022-08-22T11:50:10.703Z,46.40
2022-08-22T11:51:13.199Z,42.80
2022-08-22T11:52:07.554Z,48.39
2022-08-22T11:53:07.890Z,44.55
2022-08-22T11:54:06.583Z,45.76
2022-08-22T11:55:07.098Z,46.86
2022-08-22T11:56:06.553Z,47.13
2022-08-22T11:57:06.557Z,44.10
2022-08-22T11:58:06.602Z,44.70
2022-08-22T11:59:06.559Z,44.82
2022-08-22T12:00:06.582Z,43.78
2022-08-22T12:01:06.562Z,44.20
2022-08-22T12:02:08.703Z,45.82
2022-08-22T12:03:06.542Z,44.10
2022-08-22T12:04:06.499Z,44.99
2022-08-22T12:05:06.585Z,46.18
2022-08-22T12:06:06.527Z,45.78
2022-08-22T12:07:06.510Z,44.10
2022-08-22T12:08:06.536Z,42.49
2022-08-22T12:09:06.503Z,45.98
2022-08-22T12:10:06.602Z,42.40
2022-08-22T12:11:07.475Z,43.36
2022-08-22T12:12:06.462Z,44.51
2022-08-22T12:13:06.458Z,44.07
2022-08-22T12:14:06.843Z,47.96
2022-08-22T12:15:09.026Z,44.53
2022-08-22T12:16:06.477Z,43.34
2022-08-22T12:17:06.415Z,41.25
2022-08-22T12:18:06.481Z,41.75
2022-08-22T12:19:06.408Z,44.92
2022-08-22T12:20:16.406Z,42.90
2022-08-22T12:21:09.102Z,43.97
2022-08-22T12:22:06.399Z,44.90
2022-08-22T12:23:06.437Z,44.61
2022-08-22T12:24:06.471Z,40.89
2022-08-22T12:25:06.398Z,44.95
2022-08-22T12:26:11.021Z,45.99
2022-08-22T12:27:07.859Z,45.71
2022-08-22T12:28:06.386Z,44.66
2022-08-22T12:29:15.280Z,46.68
2022-08-22T12:30:14.033Z,48.68
2022-08-22T12:31:07.403Z,44.84
2022-08-22T12:32:06.340Z,45.19
2022-08-22T12:33:06.364Z,45.36
2022-08-22T12:34:07.495Z,46.22
2022-08-22T12:35:13.674Z,45.83
2022-08-22T12:36:09.494Z,42.71
2022-08-22T12:37:07.299Z,42.91
2022-08-22T12:38:29.361Z,43.55
2022-08-22T12:39:07.777Z,43.04
2022-08-22T12:40:06.403Z,48.23
2022-08-22T12:41:08.186Z,43.53
2022-08-22T12:42:06.297Z,42.62
2022-08-22T12:43:06.566Z,46.77
2022-08-22T12:44:06.347Z,45.98
2022-08-22T12:45:06.253Z,45.38